Wymondham, United Kingdom
Current Conditions -  °F | °C
As of 8:20 PM on Thursday 29 Jan 2015 (Local Time) from EGSH Reporting Station
Broken Clouds Broken Clouds  
Wind Chill: 25°   Ceiling: 1600
Heat Index: 32°   Visibility: 6mi
Dew Point: 30°   Wind: 8mph
Humidity: 93%   Direction: 270°W
Pressure: 28.76"   Gusts: NA
Location:  52.57°N, 1.11°E
Report Text: EGSH 292020Z 27007KT 9999 SCT012 BKN016 00/M01 Q0974 NOSIG
Loading
Personal Weather Stations






























Interactive Weather Map New forecast layout! Learn more

10-Day Weather Forecast

Advertisements
Track Severe Weather on mobile